sensor_id;sensor_type;location;lat;lon;timestamp;P1;durP1;ratioP1;P2;durP2;ratioP2
20884;SDS011;10602;48.000;9.654;2023-04-03T00:23:18;5.23;;;4.67;;
20884;SDS011;10602;48.000;9.654;2023-04-03T00:25:46;5.50;;;4.97;;
20884;SDS011;10602;48.000;9.654;2023-04-03T00:28:13;5.67;;;5.17;;
20884;SDS011;10602;48.000;9.654;2023-04-03T00:30:41;6.00;;;4.70;;
20884;SDS011;10602;48.000;9.654;2023-04-03T00:33:10;5.13;;;4.63;;
20884;SDS011;10602;48.000;9.654;2023-04-03T00:35:39;5.57;;;5.00;;
20884;SDS011;10602;48.000;9.654;2023-04-03T00:38:07;4.97;;;4.47;;
20884;SDS011;10602;48.000;9.654;2023-04-03T00:40:36;7.40;;;5.63;;
20884;SDS011;10602;48.000;9.654;2023-04-03T00:43:10;5.90;;;5.30;;
20884;SDS011;10602;48.000;9.654;2023-04-03T00:45:39;6.20;;;5.53;;
20884;SDS011;10602;48.000;9.654;2023-04-03T00:48:10;6.67;;;5.90;;
20884;SDS011;10602;48.000;9.654;2023-04-03T00:50:39;7.00;;;5.67;;
20884;SDS011;10602;48.000;9.654;2023-04-03T00:53:10;6.90;;;5.73;;
20884;SDS011;10602;48.000;9.654;2023-04-03T00:55:39;6.30;;;5.70;;
20884;SDS011;10602;48.000;9.654;2023-04-03T00:58:08;6.60;;;5.63;;
20884;SDS011;10602;48.000;9.654;2023-04-03T01:00:37;5.53;;;5.00;;
20884;SDS011;10602;48.000;9.654;2023-04-03T01:03:07;6.37;;;5.70;;
20884;SDS011;10602;48.000;9.654;2023-04-03T01:05:35;6.83;;;5.90;;
20884;SDS011;10602;48.000;9.654;2023-04-03T01:08:02;6.13;;;5.43;;
20884;SDS011;10602;48.000;9.654;2023-04-03T01:10:30;6.47;;;5.77;;
20884;SDS011;10602;48.000;9.654;2023-04-03T01:12:57;6.83;;;5.97;;
20884;SDS011;10602;48.000;9.654;2023-04-03T01:15:27;7.20;;;5.70;;
20884;SDS011;10602;48.000;9.654;2023-04-03T01:17:57;7.10;;;5.80;;
20884;SDS011;10602;48.000;9.654;2023-04-03T01:25:50;6.97;;;6.27;;
20884;SDS011;10602;48.000;9.654;2023-04-03T01:30:54;6.57;;;5.90;;
20884;SDS011;10602;48.000;9.654;2023-04-03T01:33:30;5.93;;;5.30;;
20884;SDS011;10602;48.000;9.654;2023-04-03T01:35:59;6.50;;;5.90;;
20884;SDS011;10602;48.000;9.654;2023-04-03T01:38:26;6.70;;;5.70;;
20884;SDS011;10602;48.000;9.654;2023-04-03T01:40:54;8.23;;;6.10;;
20884;SDS011;10602;48.000;9.654;2023-04-03T01:43:21;6.10;;;5.43;;
20884;SDS011;10602;48.000;9.654;2023-04-03T01:45:49;7.40;;;5.83;;
20884;SDS011;10602;48.000;9.654;2023-04-03T01:48:18;5.87;;;5.27;;
20884;SDS011;10602;48.000;9.654;2023-04-03T01:50:46;5.63;;;5.07;;
20884;SDS011;10602;48.000;9.654;2023-04-03T01:53:13;5.63;;;5.03;;
20884;SDS011;10602;48.000;9.654;2023-04-03T01:55:41;6.90;;;5.50;;
20884;SDS011;10602;48.000;9.654;2023-04-03T01:58:08;5.90;;;5.30;;
20884;SDS011;10602;48.000;9.654;2023-04-03T02:00:36;6.00;;;5.40;;
20884;SDS011;10602;48.000;9.654;2023-04-03T02:03:03;5.77;;;5.10;;
20884;SDS011;10602;48.000;9.654;2023-04-03T02:05:31;5.60;;;5.00;;
20884;SDS011;10602;48.000;9.654;2023-04-03T02:07:59;6.53;;;5.00;;
20884;SDS011;10602;48.000;9.654;2023-04-03T02:10:26;5.87;;;5.27;;
20884;SDS011;10602;48.000;9.654;2023-04-03T02:12:54;5.77;;;4.70;;
20884;SDS011;10602;48.000;9.654;2023-04-03T02:15:21;5.40;;;4.70;;
20884;SDS011;10602;48.000;9.654;2023-04-03T02:17:49;6.27;;;5.30;;
20884;SDS011;10602;48.000;9.654;2023-04-03T02:20:16;6.03;;;5.30;;
20884;SDS011;10602;48.000;9.654;2023-04-03T02:22:44;5.43;;;4.63;;
20884;SDS011;10602;48.000;9.654;2023-04-03T02:25:11;5.67;;;4.90;;
20884;SDS011;10602;48.000;9.654;2023-04-03T02:27:39;5.47;;;4.83;;
20884;SDS011;10602;48.000;9.654;2023-04-03T02:30:07;5.50;;;4.90;;
20884;SDS011;10602;48.000;9.654;2023-04-03T02:32:36;6.60;;;4.97;;
20884;SDS011;10602;48.000;9.654;2023-04-03T02:35:03;4.80;;;4.33;;
20884;SDS011;10602;48.000;9.654;2023-04-03T02:37:31;4.70;;;4.20;;
20884;SDS011;10602;48.000;9.654;2023-04-03T02:39:59;4.80;;;4.30;;
20884;SDS011;10602;48.000;9.654;2023-04-03T02:42:27;6.40;;;4.47;;
20884;SDS011;10602;48.000;9.654;2023-04-03T02:44:54;5.33;;;4.77;;
20884;SDS011;10602;48.000;9.654;2023-04-03T02:47:23;5.17;;;4.67;;
20884;SDS011;10602;48.000;9.654;2023-04-03T02:49:51;5.13;;;4.63;;
20884;SDS011;10602;48.000;9.654;2023-04-03T02:52:18;5.20;;;4.27;;
20884;SDS011;10602;48.000;9.654;2023-04-03T02:54:46;4.60;;;4.20;;
20884;SDS011;10602;48.000;9.654;2023-04-03T02:57:14;4.83;;;4.23;;
20884;SDS011;10602;48.000;9.654;2023-04-03T02:59:45;4.50;;;4.10;;
20884;SDS011;10602;48.000;9.654;2023-04-03T03:02:12;5.77;;;4.70;;
20884;SDS011;10602;48.000;9.654;2023-04-03T03:04:40;5.17;;;4.63;;
20884;SDS011;10602;48.000;9.654;2023-04-03T03:07:08;5.23;;;4.30;;
20884;SDS011;10602;48.000;9.654;2023-04-03T03:09:36;4.87;;;4.30;;
20884;SDS011;10602;48.000;9.654;2023-04-03T03:12:03;4.87;;;4.23;;
20884;SDS011;10602;48.000;9.654;2023-04-03T03:14:31;4.13;;;3.80;;
20884;SDS011;10602;48.000;9.654;2023-04-03T03:16:59;4.90;;;3.80;;
20884;SDS011;10602;48.000;9.654;2023-04-03T03:19:26;5.63;;;4.03;;
20884;SDS011;10602;48.000;9.654;2023-04-03T03:21:54;4.67;;;4.10;;
20884;SDS011;10602;48.000;9.654;2023-04-03T03:24:22;4.90;;;4.47;;
20884;SDS011;10602;48.000;9.654;2023-04-03T03:26:50;4.30;;;3.90;;
20884;SDS011;10602;48.000;9.654;2023-04-03T03:29:17;4.83;;;4.10;;
20884;SDS011;10602;48.000;9.654;2023-04-03T03:31:45;5.00;;;4.27;;
20884;SDS011;10602;48.000;9.654;2023-04-03T03:34:12;5.07;;;4.30;;
20884;SDS011;10602;48.000;9.654;2023-04-03T03:36:42;7.17;;;4.20;;
20884;SDS011;10602;48.000;9.654;2023-04-03T03:39:09;4.73;;;4.20;;
20884;SDS011;10602;48.000;9.654;2023-04-03T03:41:36;5.47;;;4.80;;
20884;SDS011;10602;48.000;9.654;2023-04-03T03:44:04;5.10;;;4.60;;
20884;SDS011;10602;48.000;9.654;2023-04-03T03:46:32;4.70;;;4.23;;
20884;SDS011;10602;48.000;9.654;2023-04-03T03:48:59;6.20;;;4.90;;
20884;SDS011;10602;48.000;9.654;2023-04-03T03:51:27;4.63;;;4.17;;
20884;SDS011;10602;48.000;9.654;2023-04-03T03:53:54;5.90;;;4.30;;
20884;SDS011;10602;48.000;9.654;2023-04-03T03:56:22;6.83;;;4.43;;
20884;SDS011;10602;48.000;9.654;2023-04-03T03:58:49;5.30;;;4.60;;
20884;SDS011;10602;48.000;9.654;2023-04-03T04:01:18;5.90;;;4.60;;
20884;SDS011;10602;48.000;9.654;2023-04-03T04:03:46;4.70;;;4.10;;
20884;SDS011;10602;48.000;9.654;2023-04-03T04:06:13;4.80;;;4.27;;
20884;SDS011;10602;48.000;9.654;2023-04-03T04:08:41;4.67;;;4.10;;
20884;SDS011;10602;48.000;9.654;2023-04-03T04:11:09;4.90;;;4.40;;
20884;SDS011;10602;48.000;9.654;2023-04-03T04:13:36;5.43;;;4.03;;
20884;SDS011;10602;48.000;9.654;2023-04-03T04:16:04;4.80;;;4.10;;
20884;SDS011;10602;48.000;9.654;2023-04-03T04:18:32;4.40;;;3.97;;
20884;SDS011;10602;48.000;9.654;2023-04-03T04:20:59;5.63;;;4.33;;
20884;SDS011;10602;48.000;9.654;2023-04-03T04:23:27;4.53;;;4.10;;
20884;SDS011;10602;48.000;9.654;2023-04-03T04:25:55;4.30;;;3.90;;
20884;SDS011;10602;48.000;9.654;2023-04-03T04:28:22;5.27;;;4.10;;
20884;SDS011;10602;48.000;9.654;2023-04-03T04:30:50;5.90;;;4.43;;
20884;SDS011;10602;48.000;9.654;2023-04-03T04:33:17;4.90;;;4.10;;
20884;SDS011;10602;48.000;9.654;2023-04-03T04:35:46;4.53;;;4.13;;
20884;SDS011;10602;48.000;9.654;2023-04-03T04:38:14;5.60;;;4.70;;
20884;SDS011;10602;48.000;9.654;2023-04-03T04:40:42;5.00;;;4.50;;
20884;SDS011;10602;48.000;9.654;2023-04-03T04:43:09;7.27;;;4.63;;
20884;SDS011;10602;48.000;9.654;2023-04-03T04:45:38;6.83;;;4.43;;
20884;SDS011;10602;48.000;9.654;2023-04-03T04:48:06;4.53;;;4.07;;
20884;SDS011;10602;48.000;9.654;2023-04-03T04:50:34;4.30;;;3.90;;
20884;SDS011;10602;48.000;9.654;2023-04-03T04:53:01;5.50;;;3.97;;
20884;SDS011;10602;48.000;9.654;2023-04-03T04:55:29;3.97;;;3.60;;
20884;SDS011;10602;48.000;9.654;2023-04-03T04:57:57;4.73;;;3.90;;
20884;SDS011;10602;48.000;9.654;2023-04-03T05:00:24;4.27;;;3.80;;
20884;SDS011;10602;48.000;9.654;2023-04-03T05:02:53;5.67;;;4.27;;
20884;SDS011;10602;48.000;9.654;2023-04-03T05:05:21;5.33;;;4.37;;
20884;SDS011;10602;48.000;9.654;2023-04-03T05:07:49;7.47;;;4.83;;
20884;SDS011;10602;48.000;9.654;2023-04-03T05:10:16;4.67;;;4.17;;
20884;SDS011;10602;48.000;9.654;2023-04-03T05:12:44;4.60;;;3.90;;
20884;SDS011;10602;48.000;9.654;2023-04-03T05:15:14;5.53;;;3.90;;
20884;SDS011;10602;48.000;9.654;2023-04-03T05:17:41;4.77;;;3.90;;
20884;SDS011;10602;48.000;9.654;2023-04-03T05:20:09;5.37;;;4.13;;
20884;SDS011;10602;48.000;9.654;2023-04-03T05:22:37;5.37;;;4.57;;
20884;SDS011;10602;48.000;9.654;2023-04-03T05:25:04;4.20;;;3.67;;
20884;SDS011;10602;48.000;9.654;2023-04-03T05:27:32;4.17;;;3.77;;
20884;SDS011;10602;48.000;9.654;2023-04-03T05:30:00;4.20;;;3.53;;
20884;SDS011;10602;48.000;9.654;2023-04-03T05:32:28;4.47;;;3.53;;
20884;SDS011;10602;48.000;9.654;2023-04-03T05:34:56;4.33;;;3.73;;
20884;SDS011;10602;48.000;9.654;2023-04-03T05:37:23;3.63;;;3.33;;
20884;SDS011;10602;48.000;9.654;2023-04-03T05:39:51;3.60;;;3.30;;
20884;SDS011;10602;48.000;9.654;2023-04-03T05:42:18;3.77;;;3.33;;
20884;SDS011;10602;48.000;9.654;2023-04-03T05:44:46;3.53;;;3.20;;
20884;SDS011;10602;48.000;9.654;2023-04-03T05:47:14;5.20;;;3.70;;
20884;SDS011;10602;48.000;9.654;2023-04-03T05:49:42;4.60;;;3.63;;
20884;SDS011;10602;48.000;9.654;2023-04-03T05:52:26;5.93;;;3.73;;
20884;SDS011;10602;48.000;9.654;2023-04-03T05:54:59;6.03;;;3.93;;
20884;SDS011;10602;48.000;9.654;2023-04-03T05:57:27;4.03;;;3.67;;
20884;SDS011;10602;48.000;9.654;2023-04-03T05:59:54;3.80;;;3.10;;
20884;SDS011;10602;48.000;9.654;2023-04-03T06:02:24;4.00;;;3.70;;
20884;SDS011;10602;48.000;9.654;2023-04-03T06:04:52;4.77;;;3.50;;
20884;SDS011;10602;48.000;9.654;2023-04-03T06:07:21;3.97;;;2.97;;
20884;SDS011;10602;48.000;9.654;2023-04-03T06:09:51;3.93;;;3.27;;
20884;SDS011;10602;48.000;9.654;2023-04-03T06:12:19;3.87;;;3.37;;
20884;SDS011;10602;48.000;9.654;2023-04-03T06:14:46;4.57;;;3.23;;
20884;SDS011;10602;48.000;9.654;2023-04-03T06:17:15;5.10;;;3.20;;
20884;SDS011;10602;48.000;9.654;2023-04-03T06:19:44;3.53;;;3.23;;
20884;SDS011;10602;48.000;9.654;2023-04-03T06:22:35;4.43;;;3.60;;
20884;SDS011;10602;48.000;9.654;2023-04-03T06:25:02;4.30;;;3.63;;
20884;SDS011;10602;48.000;9.654;2023-04-03T06:30:36;3.90;;;3.50;;
20884;SDS011;10602;48.000;9.654;2023-04-03T06:33:09;4.37;;;3.20;;
20884;SDS011;10602;48.000;9.654;2023-04-03T06:35:37;5.23;;;3.60;;
20884;SDS011;10602;48.000;9.654;2023-04-03T06:38:05;4.73;;;3.60;;
20884;SDS011;10602;48.000;9.654;2023-04-03T06:40:34;4.70;;;3.53;;
20884;SDS011;10602;48.000;9.654;2023-04-03T06:43:04;4.80;;;3.80;;
20884;SDS011;10602;48.000;9.654;2023-04-03T06:45:37;3.47;;;3.10;;
20884;SDS011;10602;48.000;9.654;2023-04-03T06:48:06;5.17;;;3.80;;
20884;SDS011;10602;48.000;9.654;2023-04-03T06:50:35;3.63;;;3.33;;
20884;SDS011;10602;48.000;9.654;2023-04-03T06:53:08;5.50;;;4.37;;
20884;SDS011;10602;48.000;9.654;2023-04-03T06:55:35;5.37;;;3.63;;
20884;SDS011;10602;48.000;9.654;2023-04-03T06:58:04;4.13;;;3.67;;
20884;SDS011;10602;48.000;9.654;2023-04-03T07:00:32;4.33;;;3.93;;
20884;SDS011;10602;48.000;9.654;2023-04-03T07:03:01;4.70;;;3.70;;
20884;SDS011;10602;48.000;9.654;2023-04-03T07:05:29;4.07;;;3.40;;
20884;SDS011;10602;48.000;9.654;2023-04-03T07:10:41;4.20;;;3.80;;
20884;SDS011;10602;48.000;9.654;2023-04-03T07:13:09;4.73;;;4.03;;
20884;SDS011;10602;48.000;9.654;2023-04-03T07:15:36;4.70;;;3.23;;
20884;SDS011;10602;48.000;9.654;2023-04-03T07:18:04;4.30;;;3.50;;
20884;SDS011;10602;48.000;9.654;2023-04-03T07:20:31;4.63;;;3.77;;
20884;SDS011;10602;48.000;9.654;2023-04-03T07:22:59;5.03;;;3.40;;
20884;SDS011;10602;48.000;9.654;2023-04-03T07:25:28;4.43;;;3.80;;
20884;SDS011;10602;48.000;9.654;2023-04-03T07:27:55;4.13;;;3.37;;
20884;SDS011;10602;48.000;9.654;2023-04-03T07:30:23;5.83;;;4.57;;
20884;SDS011;10602;48.000;9.654;2023-04-03T07:32:52;6.00;;;3.70;;
20884;SDS011;10602;48.000;9.654;2023-04-03T07:35:19;4.67;;;3.73;;
20884;SDS011;10602;48.000;9.654;2023-04-03T07:37:47;4.77;;;3.93;;
20884;SDS011;10602;48.000;9.654;2023-04-03T07:40:17;4.57;;;4.10;;
20884;SDS011;10602;48.000;9.654;2023-04-03T07:42:47;4.27;;;3.40;;
20884;SDS011;10602;48.000;9.654;2023-04-03T07:45:14;4.00;;;3.60;;
20884;SDS011;10602;48.000;9.654;2023-04-03T07:47:43;3.73;;;3.43;;
20884;SDS011;10602;48.000;9.654;2023-04-03T07:50:10;5.30;;;3.30;;
20884;SDS011;10602;48.000;9.654;2023-04-03T07:52:38;3.87;;;3.23;;
20884;SDS011;10602;48.000;9.654;2023-04-03T07:55:06;4.10;;;3.70;;
20884;SDS011;10602;48.000;9.654;2023-04-03T07:57:34;8.13;;;4.97;;
20884;SDS011;10602;48.000;9.654;2023-04-03T08:00:02;5.80;;;4.33;;
20884;SDS011;10602;48.000;9.654;2023-04-03T08:02:31;6.30;;;4.20;;
20884;SDS011;10602;48.000;9.654;2023-04-03T08:04:58;4.40;;;3.53;;
20884;SDS011;10602;48.000;9.654;2023-04-03T08:07:26;4.53;;;3.67;;
20884;SDS011;10602;48.000;9.654;2023-04-03T08:09:55;4.00;;;3.60;;
20884;SDS011;10602;48.000;9.654;2023-04-03T08:12:24;4.73;;;3.60;;
20884;SDS011;10602;48.000;9.654;2023-04-03T08:14:53;3.97;;;3.40;;
20884;SDS011;10602;48.000;9.654;2023-04-03T08:17:21;3.57;;;3.23;;
20884;SDS011;10602;48.000;9.654;2023-04-03T08:19:51;5.60;;;3.80;;
20884;SDS011;10602;48.000;9.654;2023-04-03T08:22:19;4.27;;;3.70;;
20884;SDS011;10602;48.000;9.654;2023-04-03T08:24:47;6.03;;;3.70;;
20884;SDS011;10602;48.000;9.654;2023-04-03T08:27:14;6.53;;;3.97;;
20884;SDS011;10602;48.000;9.654;2023-04-03T08:29:42;5.67;;;4.20;;
20884;SDS011;10602;48.000;9.654;2023-04-03T08:32:10;6.20;;;4.20;;
20884;SDS011;10602;48.000;9.654;2023-04-03T08:34:38;5.03;;;3.97;;
20884;SDS011;10602;48.000;9.654;2023-04-03T08:37:05;4.30;;;3.30;;
20884;SDS011;10602;48.000;9.654;2023-04-03T08:39:35;6.63;;;4.33;;
20884;SDS011;10602;48.000;9.654;2023-04-03T08:42:04;4.47;;;4.03;;
20884;SDS011;10602;48.000;9.654;2023-04-03T08:44:54;5.07;;;4.17;;
20884;SDS011;10602;48.000;9.654;2023-04-03T08:47:25;5.83;;;4.53;;
20884;SDS011;10602;48.000;9.654;2023-04-03T08:49:57;5.27;;;3.90;;
20884;SDS011;10602;48.000;9.654;2023-04-03T08:58:18;3.87;;;3.37;;
20884;SDS011;10602;48.000;9.654;2023-04-03T09:00:55;4.27;;;3.57;;
20884;SDS011;10602;48.000;9.654;2023-04-03T09:03:34;4.60;;;3.80;;
20884;SDS011;10602;48.000;9.654;2023-04-03T09:06:05;4.57;;;3.70;;
20884;SDS011;10602;48.000;9.654;2023-04-03T09:08:48;3.80;;;3.40;;
20884;SDS011;10602;48.000;9.654;2023-04-03T09:14:56;4.43;;;3.80;;
20884;SDS011;10602;48.000;9.654;2023-04-03T09:17:22;4.40;;;3.50;;
20884;SDS011;10602;48.000;9.654;2023-04-03T09:19:58;5.63;;;3.53;;
20884;SDS011;10602;48.000;9.654;2023-04-03T09:22:38;4.00;;;3.60;;
20884;SDS011;10602;48.000;9.654;2023-04-03T09:27:54;5.43;;;4.67;;
20884;SDS011;10602;48.000;9.654;2023-04-03T09:30:25;4.13;;;3.60;;
20884;SDS011;10602;48.000;9.654;2023-04-03T09:32:53;4.13;;;3.37;;
20884;SDS011;10602;48.000;9.654;2023-04-03T09:35:26;4.00;;;3.47;;
20884;SDS011;10602;48.000;9.654;2023-04-03T09:38:00;4.23;;;3.67;;
20884;SDS011;10602;48.000;9.654;2023-04-03T09:40:31;3.93;;;3.53;;
20884;SDS011;10602;48.000;9.654;2023-04-03T09:43:02;4.33;;;3.70;;
20884;SDS011;10602;48.000;9.654;2023-04-03T09:45:32;4.33;;;3.93;;
20884;SDS011;10602;48.000;9.654;2023-04-03T09:53:30;3.83;;;3.37;;
20884;SDS011;10602;48.000;9.654;2023-04-03T09:56:03;5.57;;;3.80;;
20884;SDS011;10602;48.000;9.654;2023-04-03T09:58:49;4.70;;;3.50;;
20884;SDS011;10602;48.000;9.654;2023-04-03T10:01:23;4.70;;;3.00;;
20884;SDS011;10602;48.000;9.654;2023-04-03T10:04:56;4.37;;;3.23;;
20884;SDS011;10602;48.000;9.654;2023-04-03T10:06:39;3.30;;;2.83;;
20884;SDS011;10602;48.000;9.654;2023-04-03T10:09:20;2.83;;;2.63;;
20884;SDS011;10602;48.000;9.654;2023-04-03T10:12:10;3.67;;;2.83;;
20884;SDS011;10602;48.000;9.654;2023-04-03T10:14:47;4.00;;;2.90;;
20884;SDS011;10602;48.000;9.654;2023-04-03T10:17:18;3.30;;;3.00;;
20884;SDS011;10602;48.000;9.654;2023-04-03T10:20:03;3.63;;;2.70;;
20884;SDS011;10602;48.000;9.654;2023-04-03T10:28:12;3.40;;;3.00;;
20884;SDS011;10602;48.000;9.654;2023-04-03T10:33:36;5.00;;;3.00;;
20884;SDS011;10602;48.000;9.654;2023-04-03T10:36:17;4.77;;;3.07;;
20884;SDS011;10602;48.000;9.654;2023-04-03T10:38:51;3.00;;;2.70;;
20884;SDS011;10602;48.000;9.654;2023-04-03T10:41:42;3.37;;;2.57;;
20884;SDS011;10602;48.000;9.654;2023-04-03T10:44:47;3.27;;;2.80;;
20884;SDS011;10602;48.000;9.654;2023-04-03T10:46:48;3.47;;;2.30;;
20884;SDS011;10602;48.000;9.654;2023-04-03T10:55:24;2.90;;;2.50;;
20884;SDS011;10602;48.000;9.654;2023-04-03T11:00:40;2.60;;;2.40;;
20884;SDS011;10602;48.000;9.654;2023-04-03T11:03:17;2.93;;;2.63;;
20884;SDS011;10602;48.000;9.654;2023-04-03T11:05:56;2.57;;;2.37;;
20884;SDS011;10602;48.000;9.654;2023-04-03T11:08:27;2.97;;;2.67;;
20884;SDS011;10602;48.000;9.654;2023-04-03T11:11:08;2.57;;;2.30;;
20884;SDS011;10602;48.000;9.654;2023-04-03T11:13:48;2.50;;;2.30;;
20884;SDS011;10602;48.000;9.654;2023-04-03T11:16:26;2.53;;;2.33;;
20884;SDS011;10602;48.000;9.654;2023-04-03T11:19:39;3.40;;;2.20;;
20884;SDS011;10602;48.000;9.654;2023-04-03T11:21:51;3.10;;;2.33;;
20884;SDS011;10602;48.000;9.654;2023-04-03T11:24:22;3.50;;;2.50;;
20884;SDS011;10602;48.000;9.654;2023-04-03T11:26:52;2.90;;;2.30;;
20884;SDS011;10602;48.000;9.654;2023-04-03T11:29:23;3.17;;;2.20;;
20884;SDS011;10602;48.000;9.654;2023-04-03T11:34:40;3.57;;;2.67;;
20884;SDS011;10602;48.000;9.654;2023-04-03T11:37:25;2.50;;;2.30;;
20884;SDS011;10602;48.000;9.654;2023-04-03T11:40:00;4.33;;;3.23;;
20884;SDS011;10602;48.000;9.654;2023-04-03T11:42:36;6.03;;;3.10;;
20884;SDS011;10602;48.000;9.654;2023-04-03T11:48:00;2.90;;;2.60;;
20884;SDS011;10602;48.000;9.654;2023-04-03T11:50:39;3.13;;;2.70;;
20884;SDS011;10602;48.000;9.654;2023-04-03T11:55:44;3.27;;;2.73;;
20884;SDS011;10602;48.000;9.654;2023-04-03T11:58:22;3.10;;;2.60;;
20884;SDS011;10602;48.000;9.654;2023-04-03T12:00:56;3.57;;;2.77;;
20884;SDS011;10602;48.000;9.654;2023-04-03T12:03:33;3.43;;;3.07;;
20884;SDS011;10602;48.000;9.654;2023-04-03T12:14:02;3.10;;;2.80;;
20884;SDS011;10602;48.000;9.654;2023-04-03T12:16:25;3.40;;;3.10;;
20884;SDS011;10602;48.000;9.654;2023-04-03T12:18:58;3.10;;;2.80;;
20884;SDS011;10602;48.000;9.654;2023-04-03T12:38:20;3.20;;;2.90;;
20884;SDS011;10602;48.000;9.654;2023-04-03T12:46:47;3.13;;;2.60;;
20884;SDS011;10602;48.000;9.654;2023-04-03T12:52:04;3.23;;;2.90;;
20884;SDS011;10602;48.000;9.654;2023-04-03T12:54:38;3.77;;;2.80;;
20884;SDS011;10602;48.000;9.654;2023-04-03T12:57:08;4.03;;;2.80;;
20884;SDS011;10602;48.000;9.654;2023-04-03T12:59:37;2.80;;;2.50;;
20884;SDS011;10602;48.000;9.654;2023-04-03T13:02:23;4.07;;;2.37;;
20884;SDS011;10602;48.000;9.654;2023-04-03T13:04:51;3.37;;;2.77;;
20884;SDS011;10602;48.000;9.654;2023-04-03T13:07:31;3.57;;;2.60;;
20884;SDS011;10602;48.000;9.654;2023-04-03T13:10:00;3.37;;;2.50;;
20884;SDS011;10602;48.000;9.654;2023-04-03T13:12:30;3.90;;;2.57;;
20884;SDS011;10602;48.000;9.654;2023-04-03T13:15:00;3.83;;;2.53;;
20884;SDS011;10602;48.000;9.654;2023-04-03T13:17:30;3.90;;;2.60;;
20884;SDS011;10602;48.000;9.654;2023-04-03T13:20:11;3.53;;;2.70;;
20884;SDS011;10602;48.000;9.654;2023-04-03T13:22:37;2.97;;;2.67;;
20884;SDS011;10602;48.000;9.654;2023-04-03T13:25:13;3.43;;;2.60;;
20884;SDS011;10602;48.000;9.654;2023-04-03T13:27:42;3.70;;;2.83;;
20884;SDS011;10602;48.000;9.654;2023-04-03T13:32:54;3.67;;;2.70;;
20884;SDS011;10602;48.000;9.654;2023-04-03T13:35:24;3.30;;;3.00;;
20884;SDS011;10602;48.000;9.654;2023-04-03T13:37:57;4.00;;;2.83;;
20884;SDS011;10602;48.000;9.654;2023-04-03T13:40:26;3.97;;;3.00;;
20884;SDS011;10602;48.000;9.654;2023-04-03T13:43:05;3.37;;;2.87;;
20884;SDS011;10602;48.000;9.654;2023-04-03T13:45:34;4.87;;;3.30;;
20884;SDS011;10602;48.000;9.654;2023-04-03T13:48:09;2.80;;;2.50;;
20884;SDS011;10602;48.000;9.654;2023-04-03T13:50:55;3.63;;;2.90;;
20884;SDS011;10602;48.000;9.654;2023-04-03T13:53:23;3.23;;;2.77;;
20884;SDS011;10602;48.000;9.654;2023-04-03T13:55:56;3.07;;;2.63;;
20884;SDS011;10602;48.000;9.654;2023-04-03T13:58:30;3.63;;;2.70;;
20884;SDS011;10602;48.000;9.654;2023-04-03T14:00:56;3.30;;;3.00;;
20884;SDS011;10602;48.000;9.654;2023-04-03T14:03:46;3.07;;;2.77;;
20884;SDS011;10602;48.000;9.654;2023-04-03T14:06:15;4.90;;;3.80;;
20884;SDS011;10602;48.000;9.654;2023-04-03T14:08:44;4.33;;;3.40;;
20884;SDS011;10602;48.000;9.654;2023-04-03T14:11:14;3.70;;;2.90;;
20884;SDS011;10602;48.000;9.654;2023-04-03T14:13:56;3.20;;;2.77;;
20884;SDS011;10602;48.000;9.654;2023-04-03T14:16:32;3.70;;;3.27;;
20884;SDS011;10602;48.000;9.654;2023-04-03T14:19:03;3.97;;;2.73;;
20884;SDS011;10602;48.000;9.654;2023-04-03T14:21:36;3.20;;;2.90;;
20884;SDS011;10602;48.000;9.654;2023-04-03T14:24:06;3.67;;;2.97;;
20884;SDS011;10602;48.000;9.654;2023-04-03T14:26:33;3.53;;;2.90;;
20884;SDS011;10602;48.000;9.654;2023-04-03T14:29:02;6.10;;;3.20;;
20884;SDS011;10602;48.000;9.654;2023-04-03T14:31:30;3.73;;;3.33;;
20884;SDS011;10602;48.000;9.654;2023-04-03T14:33:59;4.17;;;3.50;;
20884;SDS011;10602;48.000;9.654;2023-04-03T14:36:28;5.60;;;3.43;;
20884;SDS011;10602;48.000;9.654;2023-04-03T14:38:56;5.43;;;3.00;;
20884;SDS011;10602;48.000;9.654;2023-04-03T14:41:26;5.10;;;3.27;;
20884;SDS011;10602;48.000;9.654;2023-04-03T14:43:54;5.20;;;3.40;;
20884;SDS011;10602;48.000;9.654;2023-04-03T14:46:28;3.43;;;3.00;;
20884;SDS011;10602;48.000;9.654;2023-04-03T14:48:57;3.93;;;3.10;;
20884;SDS011;10602;48.000;9.654;2023-04-03T14:51:25;4.03;;;3.30;;
20884;SDS011;10602;48.000;9.654;2023-04-03T14:53:52;4.27;;;3.20;;
20884;SDS011;10602;48.000;9.654;2023-04-03T14:56:23;3.93;;;3.30;;
20884;SDS011;10602;48.000;9.654;2023-04-03T14:58:58;4.17;;;3.77;;
20884;SDS011;10602;48.000;9.654;2023-04-03T15:01:27;4.27;;;3.60;;
20884;SDS011;10602;48.000;9.654;2023-04-03T15:03:55;3.83;;;3.40;;
20884;SDS011;10602;48.000;9.654;2023-04-03T15:06:22;4.13;;;3.30;;
20884;SDS011;10602;48.000;9.654;2023-04-03T15:08:51;4.93;;;3.80;;
20884;SDS011;10602;48.000;9.654;2023-04-03T15:11:19;4.23;;;3.00;;
20884;SDS011;10602;48.000;9.654;2023-04-03T15:13:46;4.73;;;3.50;;
20884;SDS011;10602;48.000;9.654;2023-04-03T15:16:17;5.57;;;3.50;;
20884;SDS011;10602;48.000;9.654;2023-04-03T15:18:45;5.60;;;4.30;;
20884;SDS011;10602;48.000;9.654;2023-04-03T15:21:14;4.70;;;3.57;;
20884;SDS011;10602;48.000;9.654;2023-04-03T15:23:42;3.10;;;2.80;;
20884;SDS011;10602;48.000;9.654;2023-04-03T15:26:09;3.90;;;2.80;;
20884;SDS011;10602;48.000;9.654;2023-04-03T15:28:38;4.47;;;2.93;;
20884;SDS011;10602;48.000;9.654;2023-04-03T15:31:07;5.63;;;3.00;;
20884;SDS011;10602;48.000;9.654;2023-04-03T15:33:35;3.43;;;3.03;;
20884;SDS011;10602;48.000;9.654;2023-04-03T15:36:03;5.80;;;3.20;;
20884;SDS011;10602;48.000;9.654;2023-04-03T15:38:31;4.37;;;3.27;;
20884;SDS011;10602;48.000;9.654;2023-04-03T15:40:59;3.77;;;2.87;;
20884;SDS011;10602;48.000;9.654;2023-04-03T15:43:26;3.87;;;3.30;;
20884;SDS011;10602;48.000;9.654;2023-04-03T15:45:55;3.50;;;3.20;;
20884;SDS011;10602;48.000;9.654;2023-04-03T15:48:25;3.50;;;3.00;;
20884;SDS011;10602;48.000;9.654;2023-04-03T15:50:54;5.63;;;4.03;;
20884;SDS011;10602;48.000;9.654;2023-04-03T15:53:21;3.57;;;3.27;;
20884;SDS011;10602;48.000;9.654;2023-04-03T15:55:49;4.80;;;3.23;;
20884;SDS011;10602;48.000;9.654;2023-04-03T15:58:16;4.07;;;3.27;;
20884;SDS011;10602;48.000;9.654;2023-04-03T16:00:43;6.33;;;3.37;;
20884;SDS011;10602;48.000;9.654;2023-04-03T16:03:12;4.50;;;3.37;;
20884;SDS011;10602;48.000;9.654;2023-04-03T16:05:44;5.30;;;3.40;;
20884;SDS011;10602;48.000;9.654;2023-04-03T16:08:12;5.27;;;3.80;;
20884;SDS011;10602;48.000;9.654;2023-04-03T16:10:40;4.17;;;3.10;;
20884;SDS011;10602;48.000;9.654;2023-04-03T16:13:08;4.77;;;3.03;;
20884;SDS011;10602;48.000;9.654;2023-04-03T16:15:35;3.93;;;3.03;;
20884;SDS011;10602;48.000;9.654;2023-04-03T16:18:03;3.83;;;2.73;;
20884;SDS011;10602;48.000;9.654;2023-04-03T16:20:31;6.00;;;2.93;;
20884;SDS011;10602;48.000;9.654;2023-04-03T16:23:00;3.90;;;2.90;;
20884;SDS011;10602;48.000;9.654;2023-04-03T16:25:28;4.80;;;3.37;;
20884;SDS011;10602;48.000;9.654;2023-04-03T16:27:56;4.17;;;3.60;;
20884;SDS011;10602;48.000;9.654;2023-04-03T16:30:24;6.60;;;3.73;;
20884;SDS011;10602;48.000;9.654;2023-04-03T16:32:51;4.53;;;3.50;;
20884;SDS011;10602;48.000;9.654;2023-04-03T16:35:21;5.13;;;3.90;;
20884;SDS011;10602;48.000;9.654;2023-04-03T16:37:48;4.60;;;2.90;;
20884;SDS011;10602;48.000;9.654;2023-04-03T16:40:16;3.30;;;2.73;;
20884;SDS011;10602;48.000;9.654;2023-04-03T16:42:44;4.87;;;3.37;;
20884;SDS011;10602;48.000;9.654;2023-04-03T16:45:11;2.93;;;2.70;;
20884;SDS011;10602;48.000;9.654;2023-04-03T16:47:41;3.40;;;3.10;;
20884;SDS011;10602;48.000;9.654;2023-04-03T16:50:08;4.87;;;3.00;;
20884;SDS011;10602;48.000;9.654;2023-04-03T16:52:36;6.07;;;3.03;;
20884;SDS011;10602;48.000;9.654;2023-04-03T16:55:03;4.10;;;3.10;;
20884;SDS011;10602;48.000;9.654;2023-04-03T16:57:31;4.03;;;3.20;;
20884;SDS011;10602;48.000;9.654;2023-04-03T16:59:59;3.37;;;2.70;;